createdAt,value
2019-05-15T00:00:52.941Z,11.14
2019-05-15T00:03:23.583Z,11.15
2019-05-15T00:05:55.433Z,11.15
2019-05-15T00:08:25.990Z,11.18
2019-05-15T00:10:58.658Z,11.21
2019-05-15T00:13:29.242Z,11.22
2019-05-15T00:16:00.455Z,11.30
2019-05-15T00:18:31.284Z,11.35
2019-05-15T00:21:02.818Z,11.34
2019-05-15T00:23:33.463Z,11.35
2019-05-15T00:26:04.194Z,11.29
2019-05-15T00:28:34.976Z,11.29
2019-05-15T00:31:05.309Z,11.22
2019-05-15T00:33:35.734Z,11.19
2019-05-15T00:36:08.478Z,11.27
2019-05-15T00:38:38.970Z,11.31
2019-05-15T00:41:09.786Z,11.36
2019-05-15T00:43:40.104Z,11.29
2019-05-15T00:46:11.363Z,11.33
2019-05-15T00:48:41.934Z,11.37
2019-05-15T00:51:14.754Z,11.34
2019-05-15T00:53:44.732Z,11.32
2019-05-15T00:56:15.197Z,11.35
2019-05-15T00:58:48.082Z,11.42
2019-05-15T01:01:19.260Z,11.41
2019-05-15T01:03:50.197Z,11.39
2019-05-15T01:06:20.837Z,11.38
2019-05-15T01:08:51.427Z,11.36
2019-05-15T01:11:22.057Z,11.40
2019-05-15T01:13:52.587Z,11.43
2019-05-15T01:16:22.967Z,11.50
2019-05-15T01:18:53.541Z,11.50
2019-05-15T01:21:24.066Z,11.50
2019-05-15T01:23:58.969Z,11.44
2019-05-15T01:26:28.305Z,11.41
2019-05-15T01:28:58.895Z,11.38
2019-05-15T01:31:29.278Z,11.40
2019-05-15T01:33:59.759Z,11.39
2019-05-15T01:36:30.258Z,11.40
2019-05-15T01:39:00.943Z,11.40
2019-05-15T01:41:32.086Z,11.36
2019-05-15T01:44:02.821Z,11.33
2019-05-15T01:46:33.298Z,11.33
2019-05-15T01:49:03.673Z,11.34
2019-05-15T01:51:34.301Z,11.36
2019-05-15T01:54:04.769Z,11.41
2019-05-15T01:56:35.321Z,11.35
2019-05-15T01:59:05.513Z,11.31
2019-05-15T02:01:39.164Z,11.30
2019-05-15T02:04:09.200Z,11.27
2019-05-15T02:06:40.558Z,11.23
2019-05-15T02:09:11.194Z,11.31
2019-05-15T02:11:42.016Z,11.36
2019-05-15T02:14:12.543Z,11.28
2019-05-15T02:16:43.176Z,11.25
2019-05-15T02:19:13.684Z,11.23
2019-05-15T02:21:44.269Z,11.26
2019-05-15T02:24:15.031Z,11.26
2019-05-15T02:26:48.080Z,11.26
2019-05-15T02:29:24.719Z,11.25
2019-05-15T02:31:50.501Z,11.28
2019-05-15T02:34:20.872Z,11.24
2019-05-15T02:36:51.151Z,11.10
2019-05-15T02:39:21.411Z,11.29
2019-05-15T02:41:51.738Z,11.32
2019-05-15T02:44:22.476Z,11.29
2019-05-15T02:46:52.901Z,11.34
2019-05-15T02:49:23.298Z,11.31
2019-05-15T02:51:53.924Z,11.28
2019-05-15T02:54:24.449Z,11.28
2019-05-15T02:56:55.068Z,11.27
2019-05-15T02:59:28.857Z,11.25
2019-05-15T03:01:59.523Z,11.22
2019-05-15T03:04:30.086Z,11.27
2019-05-15T03:07:09.534Z,11.25
2019-05-15T03:09:32.968Z,11.23
2019-05-15T03:12:04.699Z,11.17
2019-05-15T03:14:35.066Z,11.17
2019-05-15T03:17:05.352Z,11.14
2019-05-15T03:19:38.992Z,11.14
2019-05-15T03:22:09.807Z,11.16
2019-05-15T03:24:40.356Z,11.14
2019-05-15T03:27:10.643Z,11.08
2019-05-15T03:29:41.517Z,11.00
2019-05-15T03:32:24.755Z,11.00
2019-05-15T03:34:47.824Z,10.98
2019-05-15T03:37:21.907Z,11.00
2019-05-15T03:39:51.777Z,10.97
2019-05-15T03:42:21.095Z,10.95
2019-05-15T03:44:51.566Z,10.90
2019-05-15T03:47:22.143Z,10.91
2019-05-15T03:49:52.813Z,10.93
2019-05-15T03:52:23.340Z,10.95
2019-05-15T03:54:53.832Z,10.93
2019-05-15T03:57:24.503Z,10.99
2019-05-15T03:59:55.854Z,10.98
2019-05-15T04:02:28.771Z,11.03
2019-05-15T04:05:01.442Z,11.04
2019-05-15T04:07:31.124Z,11.06
2019-05-15T04:10:01.765Z,11.14
2019-05-15T04:12:32.281Z,11.09
2019-05-15T04:15:02.606Z,11.25
2019-05-15T04:17:33.195Z,11.30
2019-05-15T04:20:04.688Z,11.34
2019-05-15T04:22:34.967Z,11.34
2019-05-15T04:25:09.367Z,11.38
2019-05-15T04:27:39.229Z,11.52
2019-05-15T04:30:10.540Z,11.61
2019-05-15T04:32:41.371Z,11.63
2019-05-15T04:35:12.060Z,11.66
2019-05-15T04:37:42.654Z,11.66
2019-05-15T04:40:13.289Z,11.58
2019-05-15T04:42:43.862Z,11.60
2019-05-15T04:45:14.484Z,11.76
2019-05-15T04:47:44.702Z,11.84
2019-05-15T04:50:15.499Z,11.79
2019-05-15T04:52:46.022Z,11.96
2019-05-15T04:55:19.467Z,12.06
2019-05-15T04:57:50.189Z,12.05
2019-05-15T05:00:40.230Z,12.30
2019-05-15T05:03:10.495Z,12.35
2019-05-15T05:05:41.194Z,12.55
2019-05-15T05:08:11.644Z,12.73
2019-05-15T05:10:42.071Z,12.91
2019-05-15T05:13:12.779Z,13.11
2019-05-15T05:15:43.357Z,13.24
2019-05-15T05:18:14.043Z,13.30
2019-05-15T05:20:44.580Z,13.55
2019-05-15T05:23:15.006Z,13.45
2019-05-15T05:25:48.540Z,13.38
2019-05-15T05:28:19.404Z,13.37
2019-05-15T05:30:50.216Z,13.23
2019-05-15T05:33:20.599Z,13.35
2019-05-15T05:35:51.057Z,13.45
2019-05-15T05:38:21.807Z,13.66
2019-05-15T05:40:52.459Z,13.60
2019-05-15T05:43:24.148Z,13.85
2019-05-15T05:45:54.784Z,13.73
2019-05-15T05:48:25.283Z,13.78
2019-05-15T05:50:58.276Z,13.78
2019-05-15T05:53:28.860Z,13.86
2019-05-15T05:55:59.125Z,13.72
2019-05-15T05:58:29.846Z,13.87
2019-05-15T06:01:01.885Z,13.88
2019-05-15T06:03:33.557Z,13.83
2019-05-15T06:06:04.355Z,13.80
2019-05-15T06:08:35.668Z,13.95
2019-05-15T06:11:05.920Z,13.79
2019-05-15T06:13:38.256Z,13.77
2019-05-15T06:16:08.991Z,13.71
2019-05-15T06:18:41.740Z,13.52
2019-05-15T06:21:12.018Z,13.48
2019-05-15T06:23:46.009Z,13.60
2019-05-15T06:26:15.008Z,13.47
2019-05-15T06:28:48.981Z,13.48
2019-05-15T06:31:19.191Z,13.48
2019-05-15T06:33:50.392Z,13.56
2019-05-15T06:36:20.823Z,13.71
2019-05-15T06:38:51.618Z,14.12
2019-05-15T06:41:22.162Z,14.19
2019-05-15T06:43:53.471Z,14.30
2019-05-15T06:46:24.063Z,14.31
2019-05-15T06:48:57.706Z,14.28
2019-05-15T06:51:28.791Z,14.47
2019-05-15T06:53:59.462Z,14.68
2019-05-15T06:56:30.068Z,15.05
2019-05-15T06:59:00.742Z,15.48
2019-05-15T07:01:33.524Z,15.86
2019-05-15T07:04:04.360Z,16.03
2019-05-15T07:06:34.791Z,16.21
2019-05-15T07:09:09.194Z,16.04
2019-05-15T07:11:40.263Z,15.77
2019-05-15T07:14:10.939Z,15.70
2019-05-15T07:16:41.920Z,15.30
2019-05-15T07:19:12.759Z,15.16
2019-05-15T07:21:43.184Z,15.04
2019-05-15T07:24:13.935Z,14.89
2019-05-15T07:26:44.558Z,14.66
2019-05-15T07:29:18.764Z,14.46
2019-05-15T07:31:50.829Z,14.24
2019-05-15T07:34:21.316Z,14.17
2019-05-15T07:36:51.930Z,14.16
2019-05-15T07:39:23.571Z,14.32
2019-05-15T07:41:54.746Z,14.37
2019-05-15T07:44:28.197Z,14.45
2019-05-15T07:46:59.020Z,14.53
2019-05-15T07:49:29.407Z,14.55
2019-05-15T07:51:59.936Z,14.90
2019-05-15T07:54:30.574Z,15.12
2019-05-15T07:57:01.000Z,15.40
2019-05-15T07:59:32.618Z,15.67
2019-05-15T08:02:05.369Z,15.59
2019-05-15T08:04:38.045Z,15.43
2019-05-15T08:07:09.150Z,15.53
2019-05-15T08:09:42.078Z,15.48
2019-05-15T08:12:14.348Z,15.42
2019-05-15T08:14:47.506Z,15.24
2019-05-15T08:17:19.121Z,15.10
2019-05-15T08:19:53.197Z,14.94
2019-05-15T08:22:23.873Z,14.94
2019-05-15T08:24:54.874Z,14.92
2019-05-15T08:27:25.713Z,14.94
2019-05-15T08:29:58.002Z,15.17
2019-05-15T08:32:28.402Z,15.11
2019-05-15T08:34:59.208Z,15.29
2019-05-15T08:37:30.599Z,15.72
2019-05-15T08:40:00.950Z,16.03
2019-05-15T08:42:33.085Z,16.08
2019-05-15T08:45:09.193Z,16.34
2019-05-15T08:47:41.403Z,16.51
2019-05-15T08:50:12.413Z,16.59
2019-05-15T08:52:52.351Z,16.14
2019-05-15T08:55:25.057Z,16.15
2019-05-15T08:58:07.200Z,16.50
2019-05-15T09:00:32.507Z,16.86
2019-05-15T09:03:04.207Z,17.11
2019-05-15T09:05:38.944Z,17.05
2019-05-15T09:08:11.515Z,16.83
2019-05-15T09:10:41.872Z,16.56
2019-05-15T09:13:12.617Z,16.60
2019-05-15T09:15:42.896Z,16.47
2019-05-15T09:18:16.491Z,16.47
2019-05-15T09:20:49.203Z,16.47
2019-05-15T09:23:21.657Z,16.43
2019-05-15T09:25:52.636Z,16.44
2019-05-15T09:28:23.164Z,16.94
2019-05-15T09:30:54.818Z,17.50
2019-05-15T09:33:28.430Z,17.62
2019-05-15T09:35:58.511Z,17.78
2019-05-15T09:38:30.178Z,17.81
2019-05-15T09:41:01.104Z,17.88
2019-05-15T09:43:31.656Z,17.88
2019-05-15T09:46:02.083Z,17.71
2019-05-15T09:48:33.113Z,17.58
2019-05-15T09:51:04.825Z,17.48
2019-05-15T09:53:35.841Z,17.36
2019-05-15T09:56:08.426Z,17.58
2019-05-15T09:58:39.213Z,18.01
2019-05-15T10:01:10.173Z,18.18
2019-05-15T10:03:44.961Z,17.70
2019-05-15T10:06:15.845Z,17.43
2019-05-15T10:08:48.928Z,17.20
2019-05-15T10:11:20.107Z,17.19
2019-05-15T10:13:53.383Z,16.92
2019-05-15T10:16:25.290Z,17.08
2019-05-15T10:18:58.218Z,17.74
2019-05-15T10:21:32.559Z,18.94
2019-05-15T10:24:04.764Z,20.01
2019-05-15T10:26:35.855Z,20.85
2019-05-15T10:29:09.159Z,21.19
2019-05-15T10:31:39.663Z,21.24
2019-05-15T10:34:13.878Z,21.11
2019-05-15T10:36:55.931Z,21.16
2019-05-15T10:39:31.943Z,21.10
2019-05-15T10:42:08.101Z,20.98
2019-05-15T10:44:44.891Z,20.69
2019-05-15T10:47:15.871Z,20.83
2019-05-15T10:50:00.046Z,20.68
2019-05-15T10:52:38.167Z,20.29
2019-05-15T10:55:15.162Z,19.46
2019-05-15T10:57:53.170Z,18.84
2019-05-15T11:00:28.579Z,18.41
2019-05-15T11:03:03.846Z,18.28
2019-05-15T11:05:49.323Z,18.21
2019-05-15T11:08:19.102Z,18.17
2019-05-15T11:10:51.518Z,18.18
2019-05-15T11:13:23.169Z,18.35
2019-05-15T11:15:57.069Z,18.80
2019-05-15T11:18:31.193Z,18.80
2019-05-15T11:21:01.632Z,18.53
2019-05-15T11:23:33.657Z,18.22
2019-05-15T11:26:09.335Z,18.00
2019-05-15T11:28:43.750Z,17.79
2019-05-15T11:31:14.471Z,17.76
2019-05-15T11:33:44.899Z,17.87
2019-05-15T11:36:19.423Z,17.62
2019-05-15T11:38:51.895Z,17.63
2019-05-15T11:41:32.679Z,17.67
2019-05-15T11:44:03.507Z,17.76
2019-05-15T11:46:39.253Z,17.83
2019-05-15T11:49:11.785Z,17.86
2019-05-15T11:51:44.166Z,17.88
2019-05-15T11:54:14.792Z,17.99
2019-05-15T11:56:48.707Z,18.24
2019-05-15T11:59:18.729Z,18.70
2019-05-15T12:01:51.208Z,19.15
2019-05-15T12:04:29.758Z,19.69
2019-05-15T12:07:01.561Z,20.12
2019-05-15T12:09:28.245Z,20.30
2019-05-15T12:12:00.681Z,20.26
2019-05-15T12:14:31.780Z,20.20
2019-05-15T12:17:11.136Z,20.00
2019-05-15T12:19:39.336Z,19.96
2019-05-15T12:22:12.423Z,20.40
2019-05-15T12:24:49.526Z,21.37
2019-05-15T12:27:18.288Z,21.97
2019-05-15T12:29:50.304Z,21.94
2019-05-15T12:32:30.107Z,22.52
2019-05-15T12:34:55.286Z,23.88
2019-05-15T12:37:28.486Z,24.18
2019-05-15T13:00:29.858Z,22.43
2019-05-15T13:03:00.393Z,21.92
2019-05-15T13:05:32.621Z,21.56
2019-05-15T13:08:03.300Z,21.56
2019-05-15T13:10:34.039Z,21.46
2019-05-15T13:13:08.786Z,21.69
2019-05-15T13:15:41.048Z,21.57
2019-05-15T13:18:13.736Z,21.87
2019-05-15T13:20:42.718Z,21.97
2019-05-15T13:23:17.366Z,21.79
2019-05-15T13:25:48.362Z,22.87
2019-05-15T13:28:20.176Z,23.72
2019-05-15T13:30:51.489Z,23.88
2019-05-15T13:33:23.950Z,23.88
2019-05-15T13:35:58.172Z,24.62
2019-05-15T13:38:28.781Z,24.92
2019-05-15T13:40:59.654Z,24.16
2019-05-15T13:43:31.556Z,23.01
2019-05-15T13:46:04.852Z,23.71
2019-05-15T13:48:39.795Z,24.79
2019-05-15T13:51:13.382Z,24.14
2019-05-15T13:53:49.266Z,23.51
2019-05-15T13:56:19.714Z,23.73
2019-05-15T13:58:50.294Z,23.43
2019-05-15T14:01:21.095Z,23.63
2019-05-15T14:03:51.797Z,24.00
2019-05-15T14:06:22.617Z,23.85
2019-05-15T14:08:54.875Z,23.27
2019-05-15T14:11:30.295Z,23.26
2019-05-15T14:14:05.657Z,23.57
2019-05-15T14:16:49.109Z,25.09
2019-05-15T14:19:28.320Z,25.66
2019-05-15T14:21:59.163Z,26.31
2019-05-15T14:24:30.921Z,26.22
2019-05-15T14:27:02.629Z,24.86
2019-05-15T14:29:35.755Z,23.74
2019-05-15T14:32:08.274Z,23.13
2019-05-15T14:34:40.425Z,22.90
2019-05-15T14:37:12.274Z,22.39
2019-05-15T14:39:52.278Z,22.08
2019-05-15T14:42:22.601Z,21.53
2019-05-15T14:44:59.075Z,21.45
2019-05-15T14:47:29.547Z,21.30
2019-05-15T14:50:09.506Z,21.41
2019-05-15T14:52:38.591Z,21.44
2019-05-15T14:55:09.522Z,21.31
2019-05-15T14:57:40.355Z,21.21
2019-05-15T15:00:10.730Z,20.88
2019-05-15T15:02:42.257Z,20.86
2019-05-15T15:05:13.031Z,20.61
2019-05-15T15:07:45.495Z,20.57
2019-05-15T15:10:22.359Z,20.38
2019-05-15T15:12:54.852Z,20.15
2019-05-15T15:15:28.528Z,19.97
2019-05-15T15:17:58.830Z,19.92
2019-05-15T15:20:29.198Z,19.79
2019-05-15T15:22:59.946Z,19.63
2019-05-15T15:25:34.189Z,19.62
2019-05-15T15:28:08.056Z,19.67
2019-05-15T15:30:38.654Z,19.79
2019-05-15T15:33:10.695Z,19.90
2019-05-15T15:35:41.230Z,19.98
2019-05-15T15:38:13.419Z,19.89
2019-05-15T15:40:43.787Z,19.74
2019-05-15T15:43:15.806Z,19.46
2019-05-15T15:45:48.430Z,19.27
2019-05-15T15:48:19.425Z,19.07
2019-05-15T15:50:51.063Z,18.93
2019-05-15T15:53:23.023Z,18.68
2019-05-15T15:55:55.153Z,18.50
2019-05-15T15:58:28.677Z,18.38
2019-05-15T16:01:00.619Z,18.30
2019-05-15T16:03:31.480Z,18.12
2019-05-15T16:06:04.027Z,17.80
2019-05-15T16:08:51.225Z,17.61
2019-05-15T16:11:09.913Z,17.56
2019-05-15T16:13:46.214Z,17.57
2019-05-15T16:16:14.701Z,17.38
2019-05-15T16:18:45.583Z,17.32
2019-05-15T16:21:59.836Z,17.40
2019-05-15T16:24:30.365Z,17.16
2019-05-15T16:27:01.095Z,17.12
2019-05-15T16:29:31.817Z,17.08
2019-05-15T16:32:02.608Z,17.02
2019-05-15T16:34:34.104Z,17.23
2019-05-15T16:37:04.736Z,17.07
2019-05-15T16:39:38.132Z,16.88
2019-05-15T16:45:05.686Z,16.76
2019-05-15T16:47:41.183Z,16.55
2019-05-15T16:50:13.277Z,16.61
2019-05-15T16:52:43.907Z,16.51
2019-05-15T16:55:14.650Z,16.44
2019-05-15T16:57:47.892Z,16.40
2019-05-15T17:00:18.776Z,16.35
2019-05-15T17:03:07.007Z,16.45
2019-05-15T17:05:29.119Z,16.28
2019-05-15T17:08:06.132Z,16.10
2019-05-15T17:10:38.570Z,15.90
2019-05-15T17:13:09.445Z,15.72
2019-05-15T17:15:39.635Z,15.70
2019-05-15T17:21:10.166Z,15.63
2019-05-15T17:23:41.884Z,15.60
2019-05-15T17:26:19.757Z,15.59
2019-05-15T17:28:53.126Z,15.54
2019-05-15T17:31:24.373Z,15.59
2019-05-15T17:33:59.301Z,15.60
2019-05-15T17:36:32.069Z,15.62
2019-05-15T17:39:03.839Z,15.58
2019-05-15T17:41:35.141Z,15.53
2019-05-15T17:44:05.816Z,15.44
2019-05-15T17:46:38.489Z,15.47
2019-05-15T17:49:15.273Z,15.40
2019-05-15T17:51:48.925Z,15.01
2019-05-15T17:54:14.704Z,14.88
2019-05-15T17:56:48.953Z,14.77
2019-05-15T17:59:20.308Z,14.71
2019-05-15T18:01:52.786Z,14.76
2019-05-15T18:04:28.401Z,14.77
2019-05-15T18:07:00.310Z,14.73
2019-05-15T18:09:50.362Z,14.72
2019-05-15T18:12:15.642Z,14.70
2019-05-15T18:14:48.310Z,14.64
2019-05-15T18:17:22.119Z,14.65
2019-05-15T18:19:53.354Z,14.69
2019-05-15T18:22:28.200Z,14.78
2019-05-15T18:24:58.674Z,14.81
2019-05-15T18:27:29.430Z,14.88
2019-05-15T18:30:00.197Z,14.75
2019-05-15T18:32:33.587Z,14.82
2019-05-15T18:35:04.017Z,14.81
2019-05-15T18:37:39.522Z,14.87
2019-05-15T18:40:12.952Z,14.92
2019-05-15T18:42:43.379Z,14.98
2019-05-15T18:45:15.453Z,14.95
2019-05-15T18:47:47.692Z,14.88
2019-05-15T18:50:23.228Z,14.84
2019-05-15T18:52:55.021Z,14.98
2019-05-15T18:55:26.056Z,14.87
2019-05-15T18:57:59.690Z,14.67
2019-05-15T19:00:36.159Z,14.60
2019-05-15T19:03:19.052Z,14.73
2019-05-15T19:05:42.021Z,14.78
2019-05-15T19:08:14.166Z,14.85
2019-05-15T19:10:44.554Z,14.76
2019-05-15T19:13:16.819Z,14.78
2019-05-15T19:15:48.443Z,14.83
2019-05-15T19:18:19.459Z,14.83
2019-05-15T19:20:54.487Z,14.78
2019-05-15T19:23:24.922Z,14.72
2019-05-15T19:25:55.344Z,14.56
2019-05-15T19:28:28.893Z,14.55
2019-05-15T19:30:59.202Z,14.51
2019-05-15T19:33:36.524Z,14.49
2019-05-15T19:36:14.252Z,14.48
2019-05-15T19:38:47.980Z,14.43
2019-05-15T19:41:18.319Z,14.39
2019-05-15T19:43:51.735Z,14.37
2019-05-15T19:46:22.205Z,14.30
2019-05-15T19:48:58.159Z,14.42
2019-05-15T19:51:29.948Z,14.45
2019-05-15T19:54:01.374Z,14.45
2019-05-15T19:56:32.789Z,14.40
2019-05-15T19:59:04.733Z,14.21
2019-05-15T20:01:35.059Z,14.10
2019-05-15T20:04:08.027Z,14.05
2019-05-15T20:06:40.220Z,14.04
2019-05-15T20:09:11.404Z,14.14
2019-05-15T20:11:42.035Z,14.16
2019-05-15T20:14:12.561Z,14.13
2019-05-15T20:16:43.098Z,14.10
2019-05-15T20:19:13.682Z,14.23
2019-05-15T20:21:44.618Z,14.16
2019-05-15T20:24:15.252Z,14.13
2019-05-15T20:26:45.712Z,14.17
2019-05-15T20:29:18.205Z,14.30
2019-05-15T20:31:49.094Z,14.28
2019-05-15T20:34:21.969Z,14.16
2019-05-15T20:36:53.619Z,14.12
2019-05-15T20:39:24.507Z,14.04
2019-05-15T20:41:55.185Z,13.99
2019-05-15T20:44:25.873Z,13.92
2019-05-15T20:46:58.827Z,13.89
2019-05-15T20:49:28.686Z,13.90
2019-05-15T20:52:00.640Z,13.92
2019-05-15T20:54:31.043Z,13.92
2019-05-15T20:57:01.897Z,13.91
2019-05-15T20:59:32.165Z,13.92
2019-05-15T21:02:03.733Z,13.94
2019-05-15T21:04:34.918Z,14.14
2019-05-15T21:07:05.347Z,14.32
2019-05-15T21:09:35.921Z,14.20
2019-05-15T21:12:09.825Z,14.18
2019-05-15T21:14:40.411Z,14.24
2019-05-15T21:17:10.572Z,14.33
2019-05-15T21:19:43.313Z,14.20
2019-05-15T21:22:13.602Z,14.12
2019-05-15T21:24:44.171Z,13.98
2019-05-15T21:27:14.665Z,13.83
2019-05-15T21:29:49.026Z,13.93
2019-05-15T21:32:19.640Z,14.13
2019-05-15T21:34:51.249Z,14.08
2019-05-15T21:37:21.992Z,13.98
2019-05-15T21:39:52.357Z,13.93
2019-05-15T21:42:23.091Z,13.81
2019-05-15T21:44:53.419Z,13.72
2019-05-15T21:47:24.287Z,13.72
2019-05-15T21:49:55.295Z,13.55
2019-05-15T21:52:26.337Z,13.41
2019-05-15T21:55:00.368Z,13.36
2019-05-15T21:57:36.375Z,13.35
2019-05-15T22:00:03.252Z,13.41
2019-05-15T22:02:38.327Z,13.42
2019-05-15T22:05:08.785Z,13.38
2019-05-15T22:07:39.131Z,13.23
2019-05-15T22:10:11.206Z,13.10
2019-05-15T22:12:41.374Z,13.07
2019-05-15T22:15:12.008Z,13.11
2019-05-15T22:17:42.580Z,13.12
2019-05-15T22:20:13.064Z,13.07
2019-05-15T22:22:43.701Z,13.05
2019-05-15T22:25:14.227Z,13.01
2019-05-15T22:27:44.666Z,13.05
2019-05-15T22:30:15.429Z,13.14
2019-05-15T22:32:46.019Z,13.20
2019-05-15T22:35:18.519Z,13.21
2019-05-15T22:37:50.141Z,13.20
2019-05-15T22:40:20.941Z,13.22
2019-05-15T22:42:51.656Z,13.23
2019-05-15T22:45:22.225Z,13.20
2019-05-15T22:47:52.979Z,13.08
2019-05-15T22:50:23.407Z,13.05
2019-05-15T22:52:53.839Z,12.94
2019-05-15T22:55:24.405Z,12.89
2019-05-15T22:57:54.992Z,12.72
2019-05-15T23:00:25.623Z,12.67
2019-05-15T23:02:57.830Z,12.67
2019-05-15T23:05:31.562Z,12.66
2019-05-15T23:08:00.122Z,12.65
2019-05-15T23:10:30.619Z,12.57
2019-05-15T23:13:01.012Z,12.50
2019-05-15T23:15:31.752Z,12.45
2019-05-15T23:18:02.301Z,12.53
2019-05-15T23:20:32.726Z,12.61
2019-05-15T23:23:03.330Z,12.68
2019-05-15T23:25:33.511Z,12.65
2019-05-15T23:28:04.202Z,12.63
2019-05-15T23:30:34.740Z,12.74
2019-05-15T23:33:05.001Z,12.81
2019-05-15T23:35:38.235Z,12.80
2019-05-15T23:38:08.475Z,12.83
2019-05-15T23:40:40.035Z,12.84
2019-05-15T23:43:10.245Z,12.84
2019-05-15T23:45:40.896Z,12.82
2019-05-15T23:48:11.253Z,12.78
2019-05-15T23:50:41.725Z,12.75
2019-05-15T23:53:12.366Z,12.72
2019-05-15T23:55:42.786Z,12.71
2019-05-15T23:58:13.377Z,12.74
